sensor_id;sensor_type;location;lat;lon;timestamp;temperature;humidity
25102;DHT22;13087;51.472;5.464;2022-08-19T00:01:28;26.80;49.00
25102;DHT22;13087;51.472;5.464;2022-08-19T00:03:55;26.70;49.00
25102;DHT22;13087;51.472;5.464;2022-08-19T00:06:20;26.70;49.10
25102;DHT22;13087;51.472;5.464;2022-08-19T00:08:46;26.70;49.10
25102;DHT22;13087;51.472;5.464;2022-08-19T00:11:11;26.60;49.20
25102;DHT22;13087;51.472;5.464;2022-08-19T00:13:37;26.60;49.30
25102;DHT22;13087;51.472;5.464;2022-08-19T00:16:04;26.50;49.30
25102;DHT22;13087;51.472;5.464;2022-08-19T00:18:31;26.40;49.30
25102;DHT22;13087;51.472;5.464;2022-08-19T00:20:56;26.40;49.50
25102;DHT22;13087;51.472;5.464;2022-08-19T00:23:22;26.30;49.60
25102;DHT22;13087;51.472;5.464;2022-08-19T00:25:47;26.30;49.70
25102;DHT22;13087;51.472;5.464;2022-08-19T00:28:13;26.30;49.70
25102;DHT22;13087;51.472;5.464;2022-08-19T00:30:39;26.20;49.70
25102;DHT22;13087;51.472;5.464;2022-08-19T00:33:04;26.20;50.50
25102;DHT22;13087;51.472;5.464;2022-08-19T00:35:30;26.20;49.90
25102;DHT22;13087;51.472;5.464;2022-08-19T00:37:55;26.10;50.00
25102;DHT22;13087;51.472;5.464;2022-08-19T00:40:21;26.00;50.00
25102;DHT22;13087;51.472;5.464;2022-08-19T00:42:47;26.00;50.10
25102;DHT22;13087;51.472;5.464;2022-08-19T00:45:18;26.00;50.10
25102;DHT22;13087;51.472;5.464;2022-08-19T00:47:44;26.00;50.20
25102;DHT22;13087;51.472;5.464;2022-08-19T00:50:10;25.90;50.20
25102;DHT22;13087;51.472;5.464;2022-08-19T00:52:41;25.90;50.30
25102;DHT22;13087;51.472;5.464;2022-08-19T00:55:12;25.90;50.40
25102;DHT22;13087;51.472;5.464;2022-08-19T00:57:39;25.90;50.30
25102;DHT22;13087;51.472;5.464;2022-08-19T01:00:07;25.90;50.30
25102;DHT22;13087;51.472;5.464;2022-08-19T01:02:33;25.80;50.30
25102;DHT22;13087;51.472;5.464;2022-08-19T01:05:00;25.70;50.30
25102;DHT22;13087;51.472;5.464;2022-08-19T01:07:26;25.60;50.40
25102;DHT22;13087;51.472;5.464;2022-08-19T01:09:52;25.60;50.60
25102;DHT22;13087;51.472;5.464;2022-08-19T01:12:17;25.50;50.80
25102;DHT22;13087;51.472;5.464;2022-08-19T01:14:43;25.40;50.80
25102;DHT22;13087;51.472;5.464;2022-08-19T01:17:10;25.40;51.00
25102;DHT22;13087;51.472;5.464;2022-08-19T01:19:37;25.30;51.00
25102;DHT22;13087;51.472;5.464;2022-08-19T01:24:35;25.30;51.10
25102;DHT22;13087;51.472;5.464;2022-08-19T01:27:03;25.30;51.20
25102;DHT22;13087;51.472;5.464;2022-08-19T01:29:29;25.20;51.30
25102;DHT22;13087;51.472;5.464;2022-08-19T01:31:54;25.20;51.50
25102;DHT22;13087;51.472;5.464;2022-08-19T01:34:20;25.10;51.50
25102;DHT22;13087;51.472;5.464;2022-08-19T01:36:46;25.10;51.60
25102;DHT22;13087;51.472;5.464;2022-08-19T01:39:14;25.10;51.70
25102;DHT22;13087;51.472;5.464;2022-08-19T01:41:40;25.00;51.80
25102;DHT22;13087;51.472;5.464;2022-08-19T01:44:06;25.00;51.90
25102;DHT22;13087;51.472;5.464;2022-08-19T01:46:32;24.90;52.10
25102;DHT22;13087;51.472;5.464;2022-08-19T01:48:58;24.90;52.10
25102;DHT22;13087;51.472;5.464;2022-08-19T01:51:23;24.80;52.30
25102;DHT22;13087;51.472;5.464;2022-08-19T01:53:50;24.80;52.40
25102;DHT22;13087;51.472;5.464;2022-08-19T01:56:16;24.80;52.30
25102;DHT22;13087;51.472;5.464;2022-08-19T01:58:44;24.80;52.30
25102;DHT22;13087;51.472;5.464;2022-08-19T02:01:11;24.80;52.30
25102;DHT22;13087;51.472;5.464;2022-08-19T02:03:37;24.70;52.40
25102;DHT22;13087;51.472;5.464;2022-08-19T02:06:03;24.70;52.40
25102;DHT22;13087;51.472;5.464;2022-08-19T02:08:30;24.70;52.40
25102;DHT22;13087;51.472;5.464;2022-08-19T02:10:57;24.70;53.10
25102;DHT22;13087;51.472;5.464;2022-08-19T02:13:22;24.70;52.40
25102;DHT22;13087;51.472;5.464;2022-08-19T02:15:48;24.70;52.40
25102;DHT22;13087;51.472;5.464;2022-08-19T02:18:14;24.70;52.40
25102;DHT22;13087;51.472;5.464;2022-08-19T02:20:40;24.70;52.40
25102;DHT22;13087;51.472;5.464;2022-08-19T02:23:06;24.70;52.40
25102;DHT22;13087;51.472;5.464;2022-08-19T02:25:32;24.80;52.30
25102;DHT22;13087;51.472;5.464;2022-08-19T02:27:58;24.80;52.20
25102;DHT22;13087;51.472;5.464;2022-08-19T02:30:23;24.70;52.30
25102;DHT22;13087;51.472;5.464;2022-08-19T02:32:50;24.60;52.40
25102;DHT22;13087;51.472;5.464;2022-08-19T02:35:16;24.50;52.50
25102;DHT22;13087;51.472;5.464;2022-08-19T02:37:41;24.50;52.60
25102;DHT22;13087;51.472;5.464;2022-08-19T02:40:26;24.40;52.70
25102;DHT22;13087;51.472;5.464;2022-08-19T02:42:52;24.40;52.90
25102;DHT22;13087;51.472;5.464;2022-08-19T02:45:17;24.30;53.10
25102;DHT22;13087;51.472;5.464;2022-08-19T02:47:43;24.20;53.20
25102;DHT22;13087;51.472;5.464;2022-08-19T02:50:08;24.20;54.00
25102;DHT22;13087;51.472;5.464;2022-08-19T02:52:34;24.10;53.50
25102;DHT22;13087;51.472;5.464;2022-08-19T02:55:00;24.10;53.40
25102;DHT22;13087;51.472;5.464;2022-08-19T02:57:26;24.10;53.40
25102;DHT22;13087;51.472;5.464;2022-08-19T02:59:51;24.10;53.50
25102;DHT22;13087;51.472;5.464;2022-08-19T03:02:17;24.10;53.40
25102;DHT22;13087;51.472;5.464;2022-08-19T03:04:43;24.00;53.50
25102;DHT22;13087;51.472;5.464;2022-08-19T03:07:08;24.00;53.60
25102;DHT22;13087;51.472;5.464;2022-08-19T03:09:36;24.00;53.60
25102;DHT22;13087;51.472;5.464;2022-08-19T03:12:02;24.00;53.60
25102;DHT22;13087;51.472;5.464;2022-08-19T03:14:29;24.00;53.70
25102;DHT22;13087;51.472;5.464;2022-08-19T03:16:55;24.00;53.70
25102;DHT22;13087;51.472;5.464;2022-08-19T03:19:20;23.90;53.60
25102;DHT22;13087;51.472;5.464;2022-08-19T03:21:49;23.90;54.40
25102;DHT22;13087;51.472;5.464;2022-08-19T03:24:15;23.90;53.80
25102;DHT22;13087;51.472;5.464;2022-08-19T03:26:41;23.90;53.90
25102;DHT22;13087;51.472;5.464;2022-08-19T03:29:07;23.80;53.90
25102;DHT22;13087;51.472;5.464;2022-08-19T03:31:34;23.80;53.90
25102;DHT22;13087;51.472;5.464;2022-08-19T03:33:59;23.80;54.10
25102;DHT22;13087;51.472;5.464;2022-08-19T03:36:25;23.80;54.10
25102;DHT22;13087;51.472;5.464;2022-08-19T03:38:55;23.80;54.20
25102;DHT22;13087;51.472;5.464;2022-08-19T03:41:22;23.80;54.10
25102;DHT22;13087;51.472;5.464;2022-08-19T03:43:48;23.70;54.10
25102;DHT22;13087;51.472;5.464;2022-08-19T03:46:16;23.70;54.10
25102;DHT22;13087;51.472;5.464;2022-08-19T03:48:42;23.70;54.30
25102;DHT22;13087;51.472;5.464;2022-08-19T03:51:14;23.60;54.30
25102;DHT22;13087;51.472;5.464;2022-08-19T03:53:40;23.60;54.30
25102;DHT22;13087;51.472;5.464;2022-08-19T03:56:05;23.60;54.30
25102;DHT22;13087;51.472;5.464;2022-08-19T03:58:33;23.60;54.30
25102;DHT22;13087;51.472;5.464;2022-08-19T04:00:58;23.60;54.30
25102;DHT22;13087;51.472;5.464;2022-08-19T04:03:24;23.50;54.50
25102;DHT22;13087;51.472;5.464;2022-08-19T04:05:52;23.50;54.60
25102;DHT22;13087;51.472;5.464;2022-08-19T04:08:19;23.40;54.50
25102;DHT22;13087;51.472;5.464;2022-08-19T04:10:47;23.40;54.50
25102;DHT22;13087;51.472;5.464;2022-08-19T04:13:14;23.40;54.50
25102;DHT22;13087;51.472;5.464;2022-08-19T04:15:40;23.40;54.70
25102;DHT22;13087;51.472;5.464;2022-08-19T04:18:07;23.40;54.70
25102;DHT22;13087;51.472;5.464;2022-08-19T04:20:37;23.40;54.70
25102;DHT22;13087;51.472;5.464;2022-08-19T04:23:03;23.50;54.60
25102;DHT22;13087;51.472;5.464;2022-08-19T04:25:28;23.50;54.50
25102;DHT22;13087;51.472;5.464;2022-08-19T04:27:59;23.60;54.50
25102;DHT22;13087;51.472;5.464;2022-08-19T04:30:24;23.60;54.40
25102;DHT22;13087;51.472;5.464;2022-08-19T04:32:50;23.60;54.30
25102;DHT22;13087;51.472;5.464;2022-08-19T04:35:15;23.70;54.20
25102;DHT22;13087;51.472;5.464;2022-08-19T04:37:41;23.70;54.20
25102;DHT22;13087;51.472;5.464;2022-08-19T04:40:06;23.70;54.20
25102;DHT22;13087;51.472;5.464;2022-08-19T04:42:50;23.70;54.10
25102;DHT22;13087;51.472;5.464;2022-08-19T04:45:16;23.70;54.20
25102;DHT22;13087;51.472;5.464;2022-08-19T04:47:42;23.70;54.20
25102;DHT22;13087;51.472;5.464;2022-08-19T04:50:08;23.70;54.20
25102;DHT22;13087;51.472;5.464;2022-08-19T04:52:36;23.70;54.20
25102;DHT22;13087;51.472;5.464;2022-08-19T04:55:02;23.60;54.30
25102;DHT22;13087;51.472;5.464;2022-08-19T04:57:28;23.60;54.30
25102;DHT22;13087;51.472;5.464;2022-08-19T04:59:54;23.50;54.50
25102;DHT22;13087;51.472;5.464;2022-08-19T05:02:20;23.50;54.60
25102;DHT22;13087;51.472;5.464;2022-08-19T05:04:45;23.40;54.60
25102;DHT22;13087;51.472;5.464;2022-08-19T05:07:10;23.40;54.80
25102;DHT22;13087;51.472;5.464;2022-08-19T05:09:36;23.40;54.90
25102;DHT22;13087;51.472;5.464;2022-08-19T05:12:02;23.40;54.90
25102;DHT22;13087;51.472;5.464;2022-08-19T05:14:28;23.30;54.90
25102;DHT22;13087;51.472;5.464;2022-08-19T05:16:54;23.30;55.10
25102;DHT22;13087;51.472;5.464;2022-08-19T05:19:19;23.30;55.30
25102;DHT22;13087;51.472;5.464;2022-08-19T05:22:03;23.30;55.40
25102;DHT22;13087;51.472;5.464;2022-08-19T05:24:47;23.30;55.40
25102;DHT22;13087;51.472;5.464;2022-08-19T05:27:14;23.30;55.50
25102;DHT22;13087;51.472;5.464;2022-08-19T05:29:39;23.30;55.50
25102;DHT22;13087;51.472;5.464;2022-08-19T05:32:04;23.30;55.60
25102;DHT22;13087;51.472;5.464;2022-08-19T05:34:31;23.30;55.70
25102;DHT22;13087;51.472;5.464;2022-08-19T05:36:58;23.30;55.60
25102;DHT22;13087;51.472;5.464;2022-08-19T05:39:26;23.20;56.00
25102;DHT22;13087;51.472;5.464;2022-08-19T05:41:53;23.20;56.20
25102;DHT22;13087;51.472;5.464;2022-08-19T05:44:19;23.20;56.10
25102;DHT22;13087;51.472;5.464;2022-08-19T05:46:46;23.30;56.40
25102;DHT22;13087;51.472;5.464;2022-08-19T05:49:12;23.30;56.20
25102;DHT22;13087;51.472;5.464;2022-08-19T05:51:38;23.30;56.30
25102;DHT22;13087;51.472;5.464;2022-08-19T05:54:05;23.40;56.20
25102;DHT22;13087;51.472;5.464;2022-08-19T05:56:31;23.40;56.40
25102;DHT22;13087;51.472;5.464;2022-08-19T05:58:57;23.30;56.20
25102;DHT22;13087;51.472;5.464;2022-08-19T06:01:24;23.30;56.20
25102;DHT22;13087;51.472;5.464;2022-08-19T06:03:49;23.40;56.20
25102;DHT22;13087;51.472;5.464;2022-08-19T06:06:15;23.40;56.10
25102;DHT22;13087;51.472;5.464;2022-08-19T06:08:41;23.50;56.00
25102;DHT22;13087;51.472;5.464;2022-08-19T06:11:11;23.50;56.10
25102;DHT22;13087;51.472;5.464;2022-08-19T06:13:37;23.50;56.10
25102;DHT22;13087;51.472;5.464;2022-08-19T06:16:02;23.40;56.40
25102;DHT22;13087;51.472;5.464;2022-08-19T06:18:28;23.40;56.50
25102;DHT22;13087;51.472;5.464;2022-08-19T06:20:53;23.40;56.40
25102;DHT22;13087;51.472;5.464;2022-08-19T06:23:19;23.50;56.70
25102;DHT22;13087;51.472;5.464;2022-08-19T06:25:45;23.50;56.80
25102;DHT22;13087;51.472;5.464;2022-08-19T06:28:10;23.50;56.70
25102;DHT22;13087;51.472;5.464;2022-08-19T06:30:36;23.40;56.70
25102;DHT22;13087;51.472;5.464;2022-08-19T06:33:02;23.40;56.70
25102;DHT22;13087;51.472;5.464;2022-08-19T06:35:27;23.40;56.90
25102;DHT22;13087;51.472;5.464;2022-08-19T06:37:54;23.40;56.80
25102;DHT22;13087;51.472;5.464;2022-08-19T06:40:20;23.50;56.70
25102;DHT22;13087;51.472;5.464;2022-08-19T06:42:45;23.60;56.50
25102;DHT22;13087;51.472;5.464;2022-08-19T06:45:11;23.60;56.50
25102;DHT22;13087;51.472;5.464;2022-08-19T06:47:36;23.70;56.50
25102;DHT22;13087;51.472;5.464;2022-08-19T06:50:02;23.70;56.40
25102;DHT22;13087;51.472;5.464;2022-08-19T06:52:32;23.60;56.70
25102;DHT22;13087;51.472;5.464;2022-08-19T06:54:59;23.60;56.80
25102;DHT22;13087;51.472;5.464;2022-08-19T06:57:24;23.60;56.90
25102;DHT22;13087;51.472;5.464;2022-08-19T06:59:50;23.60;57.10
25102;DHT22;13087;51.472;5.464;2022-08-19T07:02:16;23.60;57.00
25102;DHT22;13087;51.472;5.464;2022-08-19T07:04:41;23.70;57.00
25102;DHT22;13087;51.472;5.464;2022-08-19T07:07:09;23.70;56.90
25102;DHT22;13087;51.472;5.464;2022-08-19T07:09:38;23.80;56.70
25102;DHT22;13087;51.472;5.464;2022-08-19T07:12:04;23.90;57.00
25102;DHT22;13087;51.472;5.464;2022-08-19T07:14:30;23.80;57.20
25102;DHT22;13087;51.472;5.464;2022-08-19T07:16:56;23.80;57.30
25102;DHT22;13087;51.472;5.464;2022-08-19T07:19:22;23.90;57.30
25102;DHT22;13087;51.472;5.464;2022-08-19T07:21:48;23.90;57.30
25102;DHT22;13087;51.472;5.464;2022-08-19T07:24:14;24.00;57.10
25102;DHT22;13087;51.472;5.464;2022-08-19T07:26:41;24.10;57.10
25102;DHT22;13087;51.472;5.464;2022-08-19T07:29:07;24.10;57.10
25102;DHT22;13087;51.472;5.464;2022-08-19T07:31:32;24.10;57.40
25102;DHT22;13087;51.472;5.464;2022-08-19T07:34:02;24.10;57.50
25102;DHT22;13087;51.472;5.464;2022-08-19T07:36:28;24.20;57.50
25102;DHT22;13087;51.472;5.464;2022-08-19T07:38:57;24.20;57.50
25102;DHT22;13087;51.472;5.464;2022-08-19T07:41:24;24.30;57.30
25102;DHT22;13087;51.472;5.464;2022-08-19T07:43:50;24.40;57.40
25102;DHT22;13087;51.472;5.464;2022-08-19T07:46:15;24.40;57.20
25102;DHT22;13087;51.472;5.464;2022-08-19T07:48:42;24.50;57.10
25102;DHT22;13087;51.472;5.464;2022-08-19T07:51:10;24.60;57.20
25102;DHT22;13087;51.472;5.464;2022-08-19T07:53:36;24.70;57.10
25102;DHT22;13087;51.472;5.464;2022-08-19T07:56:02;24.70;57.20
25102;DHT22;13087;51.472;5.464;2022-08-19T07:58:30;24.70;57.20
25102;DHT22;13087;51.472;5.464;2022-08-19T08:00:56;24.70;57.20
25102;DHT22;13087;51.472;5.464;2022-08-19T08:03:22;24.80;57.20
25102;DHT22;13087;51.472;5.464;2022-08-19T08:06:11;24.70;57.20
25102;DHT22;13087;51.472;5.464;2022-08-19T08:08:55;24.70;57.70
25102;DHT22;13087;51.472;5.464;2022-08-19T08:11:36;24.60;57.70
25102;DHT22;13087;51.472;5.464;2022-08-19T08:14:02;24.70;57.70
25102;DHT22;13087;51.472;5.464;2022-08-19T08:16:28;24.80;57.60
25102;DHT22;13087;51.472;5.464;2022-08-19T08:18:56;24.90;57.30
25102;DHT22;13087;51.472;5.464;2022-08-19T08:21:22;24.90;57.40
25102;DHT22;13087;51.472;5.464;2022-08-19T08:23:47;25.00;57.20
25102;DHT22;13087;51.472;5.464;2022-08-19T08:26:13;25.00;57.40
25102;DHT22;13087;51.472;5.464;2022-08-19T08:28:40;25.00;57.40
25102;DHT22;13087;51.472;5.464;2022-08-19T08:31:05;25.00;57.50
25102;DHT22;13087;51.472;5.464;2022-08-19T08:33:31;25.00;57.40
25102;DHT22;13087;51.472;5.464;2022-08-19T08:35:56;25.10;57.40
25102;DHT22;13087;51.472;5.464;2022-08-19T08:38:22;25.10;57.20
25102;DHT22;13087;51.472;5.464;2022-08-19T08:40:49;25.20;57.30
25102;DHT22;13087;51.472;5.464;2022-08-19T08:43:23;25.20;57.20
25102;DHT22;13087;51.472;5.464;2022-08-19T08:46:00;25.20;57.20
25102;DHT22;13087;51.472;5.464;2022-08-19T08:51:12;25.30;57.10
25102;DHT22;13087;51.472;5.464;2022-08-19T08:53:39;25.30;57.10
25102;DHT22;13087;51.472;5.464;2022-08-19T08:56:06;25.30;57.10
25102;DHT22;13087;51.472;5.464;2022-08-19T08:58:36;25.30;57.10
25102;DHT22;13087;51.472;5.464;2022-08-19T09:01:08;25.40;57.10
25102;DHT22;13087;51.472;5.464;2022-08-19T09:03:34;25.40;56.90
25102;DHT22;13087;51.472;5.464;2022-08-19T09:06:13;25.40;56.90
25102;DHT22;13087;51.472;5.464;2022-08-19T09:08:42;25.50;56.90
25102;DHT22;13087;51.472;5.464;2022-08-19T09:11:12;25.50;56.80
25102;DHT22;13087;51.472;5.464;2022-08-19T09:16:24;25.50;56.70
25102;DHT22;13087;51.472;5.464;2022-08-19T09:19:05;25.50;56.80
25102;DHT22;13087;51.472;5.464;2022-08-19T09:21:32;25.50;56.90
25102;DHT22;13087;51.472;5.464;2022-08-19T09:23:57;25.50;56.70
25102;DHT22;13087;51.472;5.464;2022-08-19T09:26:24;25.40;56.80
25102;DHT22;13087;51.472;5.464;2022-08-19T09:28:50;25.30;57.00
25102;DHT22;13087;51.472;5.464;2022-08-19T09:31:18;25.30;57.30
25102;DHT22;13087;51.472;5.464;2022-08-19T09:33:44;25.30;57.20
25102;DHT22;13087;51.472;5.464;2022-08-19T09:36:11;25.20;57.30
25102;DHT22;13087;51.472;5.464;2022-08-19T09:38:37;25.20;58.00
25102;DHT22;13087;51.472;5.464;2022-08-19T09:41:10;25.30;57.20
25102;DHT22;13087;51.472;5.464;2022-08-19T09:43:37;25.40;57.10
25102;DHT22;13087;51.472;5.464;2022-08-19T09:46:03;25.30;57.00
25102;DHT22;13087;51.472;5.464;2022-08-19T09:48:34;25.30;57.10
25102;DHT22;13087;51.472;5.464;2022-08-19T09:51:07;25.20;57.10
25102;DHT22;13087;51.472;5.464;2022-08-19T09:53:33;25.10;57.20
25102;DHT22;13087;51.472;5.464;2022-08-19T09:55:59;25.20;57.40
25102;DHT22;13087;51.472;5.464;2022-08-19T09:58:24;25.20;57.30
25102;DHT22;13087;51.472;5.464;2022-08-19T10:00:56;25.10;57.20
25102;DHT22;13087;51.472;5.464;2022-08-19T10:03:22;25.20;57.30
25102;DHT22;13087;51.472;5.464;2022-08-19T10:05:48;25.10;57.40
25102;DHT22;13087;51.472;5.464;2022-08-19T10:08:14;25.10;58.10
25102;DHT22;13087;51.472;5.464;2022-08-19T10:10:41;25.10;57.50
25102;DHT22;13087;51.472;5.464;2022-08-19T10:13:09;25.10;58.30
25102;DHT22;13087;51.472;5.464;2022-08-19T10:15:34;25.10;57.70
25102;DHT22;13087;51.472;5.464;2022-08-19T10:18:00;25.00;57.80
25102;DHT22;13087;51.472;5.464;2022-08-19T10:20:26;25.00;58.00
25102;DHT22;13087;51.472;5.464;2022-08-19T10:22:51;25.10;58.00
25102;DHT22;13087;51.472;5.464;2022-08-19T10:25:17;25.10;58.00
25102;DHT22;13087;51.472;5.464;2022-08-19T10:27:42;25.10;57.90
25102;DHT22;13087;51.472;5.464;2022-08-19T10:30:08;25.10;57.90
25102;DHT22;13087;51.472;5.464;2022-08-19T10:32:34;25.10;57.80
25102;DHT22;13087;51.472;5.464;2022-08-19T10:35:00;25.10;57.90
25102;DHT22;13087;51.472;5.464;2022-08-19T10:37:26;25.20;57.90
25102;DHT22;13087;51.472;5.464;2022-08-19T10:39:51;25.30;57.80
25102;DHT22;13087;51.472;5.464;2022-08-19T10:42:17;25.40;57.70
25102;DHT22;13087;51.472;5.464;2022-08-19T10:44:43;25.40;57.60
25102;DHT22;13087;51.472;5.464;2022-08-19T10:47:09;25.50;57.40
25102;DHT22;13087;51.472;5.464;2022-08-19T10:49:34;25.60;57.30
25102;DHT22;13087;51.472;5.464;2022-08-19T10:52:20;25.70;57.10
25102;DHT22;13087;51.472;5.464;2022-08-19T10:55:05;25.80;57.10
25102;DHT22;13087;51.472;5.464;2022-08-19T10:57:49;26.00;57.00
25102;DHT22;13087;51.472;5.464;2022-08-19T11:00:15;26.20;56.80
25102;DHT22;13087;51.472;5.464;2022-08-19T11:02:40;26.30;56.50
25102;DHT22;13087;51.472;5.464;2022-08-19T11:05:07;26.40;56.40
25102;DHT22;13087;51.472;5.464;2022-08-19T11:07:36;26.40;56.00
25102;DHT22;13087;51.472;5.464;2022-08-19T11:10:03;26.30;55.90
25102;DHT22;13087;51.472;5.464;2022-08-19T11:12:28;26.40;56.20
25102;DHT22;13087;51.472;5.464;2022-08-19T11:14:54;26.50;56.00
25102;DHT22;13087;51.472;5.464;2022-08-19T11:17:19;26.50;55.60
25102;DHT22;13087;51.472;5.464;2022-08-19T11:19:48;26.30;55.60
25102;DHT22;13087;51.472;5.464;2022-08-19T11:22:14;26.30;55.90
25102;DHT22;13087;51.472;5.464;2022-08-19T11:24:40;26.30;55.90
25102;DHT22;13087;51.472;5.464;2022-08-19T11:27:06;26.30;56.00
25102;DHT22;13087;51.472;5.464;2022-08-19T11:29:34;26.40;55.90
25102;DHT22;13087;51.472;5.464;2022-08-19T11:32:02;26.50;55.80
25102;DHT22;13087;51.472;5.464;2022-08-19T11:34:28;26.60;55.70
25102;DHT22;13087;51.472;5.464;2022-08-19T11:36:54;26.70;55.60
25102;DHT22;13087;51.472;5.464;2022-08-19T11:39:23;26.80;55.30
25102;DHT22;13087;51.472;5.464;2022-08-19T11:41:48;27.00;55.40
25102;DHT22;13087;51.472;5.464;2022-08-19T11:44:14;27.10;55.20
25102;DHT22;13087;51.472;5.464;2022-08-19T11:46:40;27.30;55.10
25102;DHT22;13087;51.472;5.464;2022-08-19T11:49:06;27.30;54.80
25102;DHT22;13087;51.472;5.464;2022-08-19T11:51:32;27.40;54.40
25102;DHT22;13087;51.472;5.464;2022-08-19T11:53:59;27.40;54.30
25102;DHT22;13087;51.472;5.464;2022-08-19T11:56:25;27.40;54.40
25102;DHT22;13087;51.472;5.464;2022-08-19T11:58:51;27.50;54.40
25102;DHT22;13087;51.472;5.464;2022-08-19T12:01:18;27.60;54.20
25102;DHT22;13087;51.472;5.464;2022-08-19T12:03:45;27.70;54.10
25102;DHT22;13087;51.472;5.464;2022-08-19T12:06:12;27.60;53.90
25102;DHT22;13087;51.472;5.464;2022-08-19T12:08:39;27.60;53.80
25102;DHT22;13087;51.472;5.464;2022-08-19T12:11:05;27.60;53.70
25102;DHT22;13087;51.472;5.464;2022-08-19T12:13:33;27.60;53.80
25102;DHT22;13087;51.472;5.464;2022-08-19T12:15:59;27.60;53.80
25102;DHT22;13087;51.472;5.464;2022-08-19T12:18:25;27.60;53.80
25102;DHT22;13087;51.472;5.464;2022-08-19T12:20:51;27.70;53.70
25102;DHT22;13087;51.472;5.464;2022-08-19T12:23:17;27.70;53.40
25102;DHT22;13087;51.472;5.464;2022-08-19T12:25:46;27.60;53.20
25102;DHT22;13087;51.472;5.464;2022-08-19T12:28:22;27.50;53.20
25102;DHT22;13087;51.472;5.464;2022-08-19T12:30:48;27.40;53.40
25102;DHT22;13087;51.472;5.464;2022-08-19T12:33:14;27.30;53.60
25102;DHT22;13087;51.472;5.464;2022-08-19T12:35:40;27.40;53.70
25102;DHT22;13087;51.472;5.464;2022-08-19T12:38:06;27.40;53.70
25102;DHT22;13087;51.472;5.464;2022-08-19T12:40:31;27.40;53.70
25102;DHT22;13087;51.472;5.464;2022-08-19T12:42:57;27.30;53.60
25102;DHT22;13087;51.472;5.464;2022-08-19T12:45:22;27.30;53.70
25102;DHT22;13087;51.472;5.464;2022-08-19T12:47:48;27.30;53.80
25102;DHT22;13087;51.472;5.464;2022-08-19T12:50:14;27.30;54.50
25102;DHT22;13087;51.472;5.464;2022-08-19T12:52:39;27.30;54.00
25102;DHT22;13087;51.472;5.464;2022-08-19T12:55:07;27.50;54.20
25102;DHT22;13087;51.472;5.464;2022-08-19T12:57:33;27.80;53.90
25102;DHT22;13087;51.472;5.464;2022-08-19T13:00:08;27.90;53.70
25102;DHT22;13087;51.472;5.464;2022-08-19T13:02:37;28.00;53.70
25102;DHT22;13087;51.472;5.464;2022-08-19T13:05:03;28.00;53.30
25102;DHT22;13087;51.472;5.464;2022-08-19T13:07:29;28.20;53.40
25102;DHT22;13087;51.472;5.464;2022-08-19T13:09:55;28.30;53.50
25102;DHT22;13087;51.472;5.464;2022-08-19T13:12:21;28.50;52.80
25102;DHT22;13087;51.472;5.464;2022-08-19T13:14:46;28.60;52.60
25102;DHT22;13087;51.472;5.464;2022-08-19T13:17:16;28.60;52.60
25102;DHT22;13087;51.472;5.464;2022-08-19T13:19:41;28.70;52.60
25102;DHT22;13087;51.472;5.464;2022-08-19T13:22:07;28.80;52.60
25102;DHT22;13087;51.472;5.464;2022-08-19T13:24:32;28.90;53.10
25102;DHT22;13087;51.472;5.464;2022-08-19T13:26:58;28.90;52.20
25102;DHT22;13087;51.472;5.464;2022-08-19T13:29:24;28.70;52.30
25102;DHT22;13087;51.472;5.464;2022-08-19T13:32:08;28.60;52.60
25102;DHT22;13087;51.472;5.464;2022-08-19T13:34:52;28.50;52.80
25102;DHT22;13087;51.472;5.464;2022-08-19T13:37:18;28.50;52.90
25102;DHT22;13087;51.472;5.464;2022-08-19T13:40:03;28.50;52.90
25102;DHT22;13087;51.472;5.464;2022-08-19T13:42:29;28.60;52.80
25102;DHT22;13087;51.472;5.464;2022-08-19T13:44:55;28.60;52.80
25102;DHT22;13087;51.472;5.464;2022-08-19T13:47:20;28.50;52.70
25102;DHT22;13087;51.472;5.464;2022-08-19T13:49:46;28.50;53.10
25102;DHT22;13087;51.472;5.464;2022-08-19T13:52:11;28.70;53.00
25102;DHT22;13087;51.472;5.464;2022-08-19T13:54:37;28.80;52.90
25102;DHT22;13087;51.472;5.464;2022-08-19T13:57:02;29.00;52.70
25102;DHT22;13087;51.472;5.464;2022-08-19T13:59:28;29.10;52.40
25102;DHT22;13087;51.472;5.464;2022-08-19T14:01:57;29.30;52.20
25102;DHT22;13087;51.472;5.464;2022-08-19T14:04:22;29.30;51.90
25102;DHT22;13087;51.472;5.464;2022-08-19T14:06:47;29.30;51.80
25102;DHT22;13087;51.472;5.464;2022-08-19T14:09:13;29.30;51.90
25102;DHT22;13087;51.472;5.464;2022-08-19T14:11:38;29.20;52.00
25102;DHT22;13087;51.472;5.464;2022-08-19T14:14:04;29.30;52.00
25102;DHT22;13087;51.472;5.464;2022-08-19T14:16:29;29.30;52.00
25102;DHT22;13087;51.472;5.464;2022-08-19T14:18:55;29.30;51.90
25102;DHT22;13087;51.472;5.464;2022-08-19T14:21:21;29.30;51.80
25102;DHT22;13087;51.472;5.464;2022-08-19T14:23:47;29.20;51.80
25102;DHT22;13087;51.472;5.464;2022-08-19T14:26:14;29.20;52.00
25102;DHT22;13087;51.472;5.464;2022-08-19T14:28:40;29.30;51.90
25102;DHT22;13087;51.472;5.464;2022-08-19T14:31:07;29.30;52.00
25102;DHT22;13087;51.472;5.464;2022-08-19T14:33:33;29.50;52.10
25102;DHT22;13087;51.472;5.464;2022-08-19T14:35:58;29.70;51.90
25102;DHT22;13087;51.472;5.464;2022-08-19T14:38:25;29.80;51.80
25102;DHT22;13087;51.472;5.464;2022-08-19T14:40:51;30.10;51.50
25102;DHT22;13087;51.472;5.464;2022-08-19T14:43:17;30.30;51.30
25102;DHT22;13087;51.472;5.464;2022-08-19T14:45:43;30.50;51.00
25102;DHT22;13087;51.472;5.464;2022-08-19T14:48:08;30.70;50.40
25102;DHT22;13087;51.472;5.464;2022-08-19T14:50:34;30.40;49.40
25102;DHT22;13087;51.472;5.464;2022-08-19T14:53:03;30.30;49.90
25102;DHT22;13087;51.472;5.464;2022-08-19T14:55:29;30.20;49.80
25102;DHT22;13087;51.472;5.464;2022-08-19T14:57:55;30.00;50.10
25102;DHT22;13087;51.472;5.464;2022-08-19T15:00:20;29.90;50.20
25102;DHT22;13087;51.472;5.464;2022-08-19T15:02:46;29.80;50.30
25102;DHT22;13087;51.472;5.464;2022-08-19T15:05:11;29.80;50.40
25102;DHT22;13087;51.472;5.464;2022-08-19T15:07:38;29.80;50.60
25102;DHT22;13087;51.472;5.464;2022-08-19T15:10:04;29.90;50.70
25102;DHT22;13087;51.472;5.464;2022-08-19T15:12:32;29.90;50.50
25102;DHT22;13087;51.472;5.464;2022-08-19T15:14:59;29.90;50.50
25102;DHT22;13087;51.472;5.464;2022-08-19T15:17:24;29.90;50.40
25102;DHT22;13087;51.472;5.464;2022-08-19T15:19:50;29.80;50.50
25102;DHT22;13087;51.472;5.464;2022-08-19T15:22:16;29.70;50.40
25102;DHT22;13087;51.472;5.464;2022-08-19T15:24:41;29.70;50.50
25102;DHT22;13087;51.472;5.464;2022-08-19T15:27:10;29.70;50.50
25102;DHT22;13087;51.472;5.464;2022-08-19T15:29:36;29.70;50.50
25102;DHT22;13087;51.472;5.464;2022-08-19T15:32:01;29.70;50.40
25102;DHT22;13087;51.472;5.464;2022-08-19T15:34:27;29.70;50.40
25102;DHT22;13087;51.472;5.464;2022-08-19T15:36:52;29.70;50.40